Time;durP1;ratioP1;P1;durP2;ratioP2;P2;SDS_P1;SDS_P2;PMS_P1;PMS_P2;Temp;Humidity;BMP_temperature;BMP_pressure;BME280_temperature;BME280_humidity;BME280_pressure;Samples;Min_cycle;Max_cycle;Signal;HPM_P1;HPM_P2
2022/03/09 00:01:45;;;;;;;54.13;48.37;;;;;;;-1.30;95.54;99369.03;5016789;28;20548;-60
2022/03/09 00:04:11;;;;;;;52.17;46.80;;;;;;;-1.15;92.55;99370.53;5015039;28;20134;-59
2022/03/09 00:06:37;;;;;;;49.70;44.67;;;;;;;-1.03;90.81;99378.53;5018351;28;20531;-58
2022/03/09 00:09:02;;;;;;;40.33;36.43;;;;;;;-0.92;89.17;99373.91;5013549;28;20053;-59
2022/03/09 00:11:27;;;;;;;41.77;37.97;;;;;;;-0.79;87.24;99378.59;5016696;28;20411;-58
2022/03/09 00:13:53;;;;;;;37.80;34.27;;;;;;;-0.67;85.24;99375.66;5014727;28;21031;-57
2022/03/09 00:16:18;;;;;;;43.53;39.30;;;;;;;-0.68;84.30;99382.34;5011351;28;20095;-55
2022/03/09 00:18:44;;;;;;;31.33;28.43;;;;;;;-0.64;84.20;99383.34;5012355;28;20033;-56
2022/03/09 00:21:10;;;;;;;34.40;31.47;;;;;;;-0.65;82.68;99374.09;5018219;28;20046;-57
2022/03/09 00:23:35;;;;;;;32.27;29.43;;;;;;;-0.72;84.11;99382.22;5016205;28;20049;-58
2022/03/09 00:26:00;;;;;;;30.90;28.40;;;;;;;-0.64;84.55;99378.31;5011314;28;20151;-57
2022/03/09 00:28:26;;;;;;;33.27;30.23;;;;;;;-0.65;84.23;99376.59;5010784;28;20086;-57
2022/03/09 00:30:51;;;;;;;35.57;32.27;;;;;;;-0.53;84.25;99377.91;5014151;28;20046;-60
2022/03/09 00:33:17;;;;;;;28.63;26.20;;;;;;;-0.49;84.49;99387.28;5013776;28;20041;-56
2022/03/09 00:35:45;;;;;;;24.10;22.13;;;;;;;-0.53;84.90;99379.56;5013748;28;20034;-57
2022/03/09 00:38:11;;;;;;;25.30;23.07;;;;;;;-0.49;84.95;99377.22;5014913;28;20041;-57
2022/03/09 00:40:37;;;;;;;41.60;37.73;;;;;;;-0.44;84.37;99379.03;5011816;28;20103;-58
2022/03/09 00:43:02;;;;;;;38.27;34.83;;;;;;;-0.40;84.49;99381.72;5014380;28;20045;-59
2022/03/09 00:45:28;;;;;;;34.00;31.07;;;;;;;-0.43;84.91;99383.28;5010491;28;20030;-56
2022/03/09 00:47:53;;;;;;;34.20;31.30;;;;;;;-0.35;84.21;99381.91;5014238;28;20052;-58
2022/03/09 00:50:19;;;;;;;31.90;29.10;;;;;;;-0.32;83.69;99385.38;5013315;28;20045;-59
2022/03/09 00:52:47;;;;;;;35.97;32.97;;;;;;;-0.36;83.65;99381.03;5013938;28;20042;-59
2022/03/09 00:55:13;;;;;;;36.53;33.33;;;;;;;-0.41;83.96;99377.50;5012021;28;20029;-59
2022/03/09 00:57:38;;;;;;;28.70;25.93;;;;;;;-0.46;83.89;99376.47;5011934;28;20924;-58
2022/03/09 01:00:04;;;;;;;30.47;27.60;;;;;;;-0.57;84.24;99377.75;5013013;28;20044;-58
2022/03/09 01:02:29;;;;;;;32.33;29.40;;;;;;;-0.53;84.61;99375.41;5012125;28;20053;-58
2022/03/09 01:04:55;;;;;;;36.27;32.93;;;;;;;-0.54;83.72;99380.34;5010620;28;20810;-57
2022/03/09 01:07:20;;;;;;;34.10;31.10;;;;;;;-0.60;84.23;99383.53;5014724;28;20044;-57
2022/03/09 01:09:45;;;;;;;38.60;35.17;;;;;;;-0.70;86.15;99390.66;5014550;28;20656;-56
2022/03/09 01:12:11;;;;;;;36.57;33.40;;;;;;;-0.61;85.29;99396.06;5014273;28;20124;-56
2022/03/09 01:14:36;;;;;;;27.43;24.83;;;;;;;-0.46;84.10;99394.09;5013039;28;20077;-56
2022/03/09 01:17:02;;;;;;;26.63;24.10;;;;;;;-0.44;84.25;99395.00;5013855;28;20040;-57
2022/03/09 01:19:27;;;;;;;27.63;25.13;;;;;;;-0.52;84.74;99392.22;5013291;28;20049;-57
2022/03/09 01:21:52;;;;;;;21.10;18.90;;;;;;;-0.67;86.08;99388.25;5014756;28;20468;-57
2022/03/09 01:24:18;;;;;;;23.77;21.77;;;;;;;-0.71;86.53;99392.31;5011318;28;20092;-58
2022/03/09 01:26:43;;;;;;;20.07;18.03;;;;;;;-0.88;87.59;99389.97;5013220;28;20045;-56
2022/03/09 01:29:09;;;;;;;18.73;16.93;;;;;;;-1.03;89.05;99393.63;5015218;28;20049;-55
2022/03/09 01:31:35;;;;;;;17.33;15.53;;;;;;;-1.10;90.46;99403.38;5010971;28;20046;-56
2022/03/09 01:34:01;;;;;;;16.37;13.87;;;;;;;-1.09;91.56;99400.94;5012868;28;20467;-54
2022/03/09 01:36:26;;;;;;;16.53;13.13;;;;;;;-1.08;91.28;99405.16;5015432;28;20048;-55
2022/03/09 01:38:52;;;;;;;15.20;13.37;;;;;;;-1.19;92.53;99400.53;5013651;28;20041;-54
2022/03/09 01:41:18;;;;;;;17.13;13.67;;;;;;;-1.15;92.72;99395.69;5009719;28;20042;-60
2022/03/09 01:43:43;;;;;;;15.50;12.87;;;;;;;-1.21;92.91;99392.03;5010234;28;20092;-58
2022/03/09 01:46:10;;;;;;;29.30;26.53;;;;;;;-1.08;92.78;99385.03;5013084;28;20149;-59
2022/03/09 01:48:35;;;;;;;30.87;27.87;;;;;;;-0.92;91.54;99392.38;5014336;28;20046;-59
2022/03/09 01:51:01;;;;;;;22.30;20.00;;;;;;;-0.77;90.68;99386.22;5010809;28;20562;-57
2022/03/09 01:53:27;;;;;;;17.00;15.27;;;;;;;-0.72;90.93;99378.00;5009597;28;20047;-59
2022/03/09 01:55:53;;;;;;;32.20;28.97;;;;;;;-0.64;89.82;99388.41;5013662;28;20049;-59
2022/03/09 01:58:18;;;;;;;20.13;18.40;;;;;;;-0.64;89.91;99395.94;5013357;28;20808;-60
2022/03/09 02:00:44;;;;;;;20.37;18.30;;;;;;;-0.59;89.38;99379.31;5010675;28;20045;-59
2022/03/09 02:03:09;;;;;;;22.03;19.67;;;;;;;-0.83;90.74;99386.84;5013201;28;20042;-60
2022/03/09 02:05:35;;;;;;;23.20;21.00;;;;;;;-0.75;90.51;99382.09;5017706;28;20041;-60
2022/03/09 02:10:46;;;;;;;22.57;20.47;;;;;;;-0.45;88.50;99373.16;5009876;28;20530;-59
2022/03/09 02:13:11;;;;;;;23.17;20.53;;;;;;;-0.48;88.24;99373.03;5012334;28;20053;-59
2022/03/09 02:15:37;;;;;;;27.57;25.13;;;;;;;-0.42;88.13;99373.25;5017649;28;20072;-59
2022/03/09 02:18:03;;;;;;;24.43;22.10;;;;;;;-0.45;87.90;99375.66;5016823;28;20068;-58
2022/03/09 02:20:29;;;;;;;19.73;16.57;;;;;;;-0.56;88.84;99369.38;5018020;28;20605;-59
2022/03/09 02:22:54;;;;;;;13.83;12.07;;;;;;;-0.60;90.29;99378.50;5016222;28;20042;-59
2022/03/09 02:25:20;;;;;;;12.30;9.77;;;;;;;-0.63;90.13;99370.81;5015882;28;20063;-60
2022/03/09 02:27:46;;;;;;;16.50;11.03;;;;;;;-0.70;91.16;99373.91;5016789;28;20049;-60
2022/03/09 02:30:15;;;;;;;14.93;8.30;;;;;;;-0.77;91.79;99378.66;5017112;28;20037;-60
2022/03/09 02:32:49;;;;;;;15.63;8.07;;;;;;;-0.99;93.07;99375.34;5016544;28;20037;-60
2022/03/09 02:35:17;;;;;;;11.10;7.10;;;;;;;-0.97;92.74;99378.75;5020477;28;20092;-57
2022/03/09 02:37:43;;;;;;;11.07;7.10;;;;;;;-1.15;94.05;99375.56;5016796;28;20124;-60
2022/03/09 02:40:14;;;;;;;11.33;6.60;;;;;;;-1.16;94.73;99378.00;5014406;28;20141;-60
2022/03/09 02:42:40;;;;;;;13.50;6.77;;;;;;;-1.16;94.97;99366.28;5017474;28;20068;-59
2022/03/09 02:45:06;;;;;;;10.73;6.93;;;;;;;-1.23;95.01;99359.28;5019227;28;20077;-59
2022/03/09 02:47:32;;;;;;;13.20;7.93;;;;;;;-1.18;95.36;99367.00;5016886;28;20140;-59
2022/03/09 02:49:57;;;;;;;13.37;7.10;;;;;;;-1.36;96.24;99354.59;5016038;28;20046;-59
2022/03/09 02:52:23;;;;;;;14.63;7.53;;;;;;;-1.29;96.53;99356.53;5020998;28;20037;-59
2022/03/09 02:54:48;;;;;;;14.53;7.50;;;;;;;-1.19;96.33;99363.63;5022209;28;20396;-60
2022/03/09 02:57:15;;;;;;;15.70;8.03;;;;;;;-1.06;95.80;99365.00;5017012;28;20322;-60
2022/03/09 02:59:40;;;;;;;9.67;6.77;;;;;;;-1.04;94.49;99368.41;5015643;28;20037;-59
2022/03/09 03:02:05;;;;;;;13.13;7.63;;;;;;;-0.92;94.54;99374.75;5020457;28;20048;-59
2022/03/09 03:04:31;;;;;;;13.73;8.00;;;;;;;-0.79;93.47;99365.16;5019866;28;20120;-58
2022/03/09 03:06:56;;;;;;;10.37;6.20;;;;;;;-0.76;92.64;99361.09;5015220;28;20042;-60
2022/03/09 03:09:22;;;;;;;10.27;6.30;;;;;;;-0.73;91.93;99355.31;5015190;28;20049;-60
2022/03/09 03:11:47;;;;;;;11.37;6.60;;;;;;;-0.74;92.12;99363.66;5015969;28;20521;-59
2022/03/09 03:14:12;;;;;;;13.63;7.83;;;;;;;-0.76;92.12;99360.22;5014747;28;20041;-59
2022/03/09 03:16:38;;;;;;;15.53;9.27;;;;;;;-0.73;92.01;99361.22;5015780;28;20045;-60
2022/03/09 03:19:03;;;;;;;10.37;8.53;;;;;;;-0.73;92.09;99357.84;5014403;28;20037;-60
2022/03/09 03:21:29;;;;;;;16.93;8.57;;;;;;;-0.85;93.09;99373.34;5020161;28;20030;-59
2022/03/09 03:23:54;;;;;;;10.03;6.33;;;;;;;-0.75;92.84;99366.97;5017834;28;20042;-59
2022/03/09 03:26:20;;;;;;;13.40;8.23;;;;;;;-0.76;92.68;99371.16;5015145;28;20040;-58
2022/03/09 03:28:45;;;;;;;15.47;7.23;;;;;;;-0.77;92.48;99371.97;5016386;28;20131;-58
2022/03/09 03:31:11;;;;;;;13.03;6.77;;;;;;;-0.82;93.23;99357.50;5016288;28;20030;-59
2022/03/09 03:33:36;;;;;;;11.77;7.20;;;;;;;-0.83;93.61;99366.69;5014265;28;20757;-59
2022/03/09 03:36:02;;;;;;;13.67;7.53;;;;;;;-0.66;93.13;99367.31;5016014;28;20081;-59
2022/03/09 03:38:27;;;;;;;13.77;7.30;;;;;;;-0.62;92.74;99364.13;5015290;28;20128;-61
2022/03/09 03:40:52;;;;;;;13.73;7.10;;;;;;;-0.55;91.81;99366.91;5017433;28;20155;-60
2022/03/09 03:43:18;;;;;;;11.00;6.93;;;;;;;-0.63;91.60;99369.94;5014174;28;20049;-59
2022/03/09 03:45:43;;;;;;;13.27;7.50;;;;;;;-0.62;91.73;99364.13;5011625;28;20099;-55
2022/03/09 03:48:09;;;;;;;11.53;7.30;;;;;;;-0.61;91.62;99363.31;5014228;28;20128;-60
2022/03/09 03:50:35;;;;;;;14.50;7.27;;;;;;;-0.55;91.65;99366.03;5014932;28;20052;-59
2022/03/09 03:53:00;;;;;;;11.57;6.97;;;;;;;-0.55;91.79;99363.53;5012071;28;20049;-57
2022/03/09 03:55:26;;;;;;;14.37;7.70;;;;;;;-0.51;91.49;99363.69;5013500;28;20358;-60
2022/03/09 03:57:51;;;;;;;12.90;6.87;;;;;;;-0.60;91.68;99360.00;5018711;28;20081;-57
2022/03/09 04:00:17;;;;;;;13.47;7.73;;;;;;;-0.66;92.54;99367.31;5017303;28;20077;-59
2022/03/09 04:02:42;;;;;;;11.67;7.23;;;;;;;-0.71;92.37;99364.63;5017102;28;20372;-59
2022/03/09 04:05:08;;;;;;;14.70;6.77;;;;;;;-0.69;92.74;99370.59;5012539;28;20053;-58
2022/03/09 04:07:34;;;;;;;15.00;7.50;;;;;;;-0.84;93.79;99370.00;5013694;28;20037;-60
2022/03/09 04:09:59;;;;;;;9.27;6.40;;;;;;;-0.85;93.86;99369.97;5015349;28;20096;-58
2022/03/09 04:12:25;;;;;;;10.60;7.13;;;;;;;-0.93;94.18;99374.69;5012029;28;20180;-60
2022/03/09 04:14:51;;;;;;;12.73;7.00;;;;;;;-1.00;94.19;99361.03;5013483;28;20073;-56
2022/03/09 04:17:16;;;;;;;14.53;7.63;;;;;;;-1.04;95.04;99364.22;5025152;28;20038;-58
2022/03/09 04:19:42;;;;;;;11.43;7.00;;;;;;;-1.05;95.54;99356.63;5014180;28;20395;-59
2022/03/09 04:22:07;;;;;;;8.70;5.87;;;;;;;-0.99;95.58;99360.25;5013024;28;20363;-57
2022/03/09 04:24:32;;;;;;;10.70;7.00;;;;;;;-1.02;95.69;99357.59;5012197;28;20041;-58
2022/03/09 04:26:58;;;;;;;13.10;7.30;;;;;;;-0.90;95.14;99364.75;5015025;28;20054;-58
2022/03/09 04:29:23;;;;;;;11.37;6.67;;;;;;;-0.90;95.08;99358.88;5031746;28;20038;-58
2022/03/09 04:31:49;;;;;;;12.47;7.47;;;;;;;-0.89;94.95;99353.88;5015164;28;20048;-58
2022/03/09 04:34:14;;;;;;;12.00;7.50;;;;;;;-0.90;94.78;99357.22;5015594;28;20069;-59
2022/03/09 04:36:40;;;;;;;11.40;6.00;;;;;;;-0.92;95.48;99366.34;5015494;28;20371;-60
2022/03/09 04:39:06;;;;;;;16.17;6.93;;;;;;;-0.90;95.63;99356.34;5015345;28;20045;-58
2022/03/09 04:41:31;;;;;;;12.40;7.27;;;;;;;-0.88;95.54;99355.59;5014460;28;20056;-59
2022/03/09 04:43:57;;;;;;;11.87;6.40;;;;;;;-0.93;95.26;99362.97;5013228;28;20087;-58
2022/03/09 04:46:22;;;;;;;14.00;7.63;;;;;;;-1.01;96.03;99350.91;5019403;28;20383;-59
2022/03/09 04:48:49;;;;;;;11.03;6.33;;;;;;;-1.00;96.32;99366.06;5013701;28;20041;-61
2022/03/09 04:51:15;;;;;;;10.97;6.80;;;;;;;-0.92;96.39;99371.38;5011318;28;20484;-60
2022/03/09 04:53:40;;;;;;;11.10;6.40;;;;;;;-0.86;95.97;99368.25;5012302;28;20052;-60
2022/03/09 04:56:06;;;;;;;14.53;7.60;;;;;;;-0.92;95.59;99367.22;5017777;28;20045;-58
2022/03/09 04:58:32;;;;;;;11.73;7.43;;;;;;;-0.83;94.81;99374.25;5013887;28;20471;-59
2022/03/09 05:00:57;;;;;;;10.10;7.00;;;;;;;-0.90;95.15;99371.44;5010656;28;20064;-59
2022/03/09 05:03:23;;;;;;;13.23;7.57;;;;;;;-0.87;95.31;99369.03;5013819;28;20037;-58
2022/03/09 05:05:48;;;;;;;16.50;7.53;;;;;;;-0.87;95.10;99366.53;5011962;28;20050;-58
2022/03/09 05:08:14;;;;;;;12.77;6.60;;;;;;;-0.81;95.13;99362.59;5012890;28;20033;-60
2022/03/09 05:10:40;;;;;;;10.53;6.27;;;;;;;-0.75;94.91;99357.78;5011537;28;20198;-60
2022/03/09 05:13:05;;;;;;;13.40;5.93;;;;;;;-0.82;95.13;99358.34;5013841;28;20545;-59
2022/03/09 05:15:31;;;;;;;11.00;7.10;;;;;;;-0.85;95.15;99360.75;5016474;28;20046;-58
2022/03/09 05:17:56;;;;;;;12.50;7.63;;;;;;;-0.83;95.08;99358.28;5012270;28;20369;-60
2022/03/09 05:20:23;;;;;;;10.07;6.43;;;;;;;-0.79;95.52;99358.47;5011998;28;20084;-60
2022/03/09 05:22:49;;;;;;;13.97;7.50;;;;;;;-0.68;94.44;99358.88;5016688;28;20045;-57
2022/03/09 05:25:16;;;;;;;15.77;7.20;;;;;;;-0.62;93.91;99359.09;5015759;28;20054;-59
2022/03/09 05:27:41;;;;;;;12.27;7.00;;;;;;;-0.69;93.77;99362.19;5011769;28;20096;-58
2022/03/09 05:30:09;;;;;;;12.73;8.00;;;;;;;-0.67;93.60;99363.09;5009929;28;20488;-59
2022/03/09 05:32:35;;;;;;;11.90;7.47;;;;;;;-0.65;93.28;99364.88;5012829;28;20045;-58
2022/03/09 05:35:01;;;;;;;10.87;6.60;;;;;;;-0.59;93.16;99370.13;5012594;28;20042;-60
2022/03/09 05:37:28;;;;;;;10.33;6.80;;;;;;;-0.56;92.96;99380.31;5012952;28;20881;-58
2022/03/09 05:39:54;;;;;;;11.00;6.83;;;;;;;-0.50;92.62;99375.50;5011958;28;20480;-59
2022/03/09 05:42:19;;;;;;;10.67;6.43;;;;;;;-0.49;91.99;99391.47;5013968;28;20062;-58
2022/03/09 05:44:45;;;;;;;12.83;7.63;;;;;;;-0.47;91.84;99390.72;5013433;28;20030;-59
2022/03/09 05:47:10;;;;;;;17.47;7.73;;;;;;;-0.36;91.03;99386.06;5011153;28;20052;-58
2022/03/09 05:49:36;;;;;;;13.80;8.60;;;;;;;-0.27;90.37;99390.59;5014284;28;20038;-60
2022/03/09 05:52:01;;;;;;;12.20;7.00;;;;;;;-0.23;89.92;99393.28;5017784;28;20041;-59
2022/03/09 05:54:27;;;;;;;9.97;6.47;;;;;;;-0.16;89.02;99400.22;5017457;28;20045;-60
2022/03/09 05:56:52;;;;;;;15.90;8.80;;;;;;;-0.18;88.94;99398.47;5014199;28;20042;-59
2022/03/09 05:59:17;;;;;;;16.37;9.40;;;;;;;-0.13;88.63;99395.28;5010941;28;20044;-60
2022/03/09 06:01:43;;;;;;;13.20;10.53;;;;;;;0.00;87.85;99405.00;5016401;28;20125;-60
2022/03/09 06:04:08;;;;;;;15.43;9.37;;;;;;;0.01;87.21;99405.88;5016598;28;20040;-59
2022/03/09 06:06:34;;;;;;;13.23;8.23;;;;;;;0.04;87.32;99397.56;5008596;28;20057;-59
2022/03/09 06:08:59;;;;;;;11.73;7.57;;;;;;;0.11;87.12;99399.47;5012372;28;20482;-58
2022/03/09 06:11:25;;;;;;;27.63;18.67;;;;;;;0.26;87.13;99405.03;5018055;28;20049;-58
2022/03/09 06:13:50;;;;;;;19.87;14.13;;;;;;;0.40;85.63;99403.84;5013868;28;20057;-57
2022/03/09 06:16:16;;;;;;;20.13;18.10;;;;;;;0.49;84.25;99403.31;5008680;28;20042;-58
2022/03/09 06:18:41;;;;;;;18.43;16.27;;;;;;;0.43;84.65;99401.41;5010849;28;20045;-57
2022/03/09 06:21:07;;;;;;;17.90;16.23;;;;;;;0.35;85.50;99405.34;5016405;28;20044;-58
2022/03/09 06:23:32;;;;;;;16.80;14.40;;;;;;;0.42;85.09;99414.88;5016375;28;20045;-58
2022/03/09 06:25:58;;;;;;;18.73;13.93;;;;;;;0.53;84.66;99420.25;5010498;28;20080;-56
2022/03/09 06:28:23;;;;;;;14.30;10.93;;;;;;;0.57;84.70;99411.97;5012521;28;20391;-57
2022/03/09 06:30:49;;;;;;;17.30;15.63;;;;;;;0.65;84.64;99416.47;5015132;28;20034;-59
2022/03/09 06:33:15;;;;;;;12.53;11.37;;;;;;;0.71;83.68;99415.81;5019532;28;20052;-58
2022/03/09 06:35:40;;;;;;;17.77;15.97;;;;;;;0.85;82.67;99419.63;5024238;28;20034;-59
2022/03/09 06:38:06;;;;;;;28.00;25.30;;;;;;;0.90;82.33;99410.53;5026766;28;20042;-60
2022/03/09 06:40:31;;;;;;;27.63;25.40;;;;;;;0.99;81.94;99423.44;5025181;28;20034;-57
2022/03/09 06:42:59;;;;;;;22.33;19.87;;;;;;;1.14;81.01;99415.50;5024778;28;20125;-60
2022/03/09 06:45:25;;;;;;;21.90;19.60;;;;;;;1.30;80.20;99418.53;5017373;28;20061;-59
2022/03/09 06:47:52;;;;;;;25.17;23.13;;;;;;;1.47;78.98;99419.03;5013551;28;20067;-58
2022/03/09 06:50:17;;;;;;;21.00;18.33;;;;;;;1.66;76.51;99418.75;5013207;28;20050;-59
2022/03/09 06:52:43;;;;;;;15.87;14.03;;;;;;;1.70;75.79;99415.50;5014614;28;20463;-59
2022/03/09 06:55:12;;;;;;;16.60;14.47;;;;;;;1.83;74.03;99422.63;5010732;28;20132;-59
2022/03/09 06:57:38;;;;;;;16.50;13.27;;;;;;;1.81;74.09;99419.19;5014011;28;20501;-59
2022/03/09 07:00:14;;;;;;;16.60;11.77;;;;;;;1.82;73.87;99423.41;5017756;28;20491;-58
2022/03/09 07:02:40;;;;;;;12.60;11.23;;;;;;;1.93;72.55;99435.50;5015701;28;20402;-58
2022/03/09 07:05:06;;;;;;;16.47;10.87;;;;;;;1.86;71.96;99439.56;5013529;28;20061;-59
2022/03/09 07:07:32;;;;;;;14.97;9.63;;;;;;;1.86;71.49;99436.16;5015616;28;20542;-58
2022/03/09 07:09:58;;;;;;;12.33;7.50;;;;;;;1.90;69.66;99433.78;5018182;28;20128;-59
2022/03/09 07:12:23;;;;;;;12.63;7.07;;;;;;;1.91;70.04;99435.47;5015921;28;20112;-59
2022/03/09 07:14:49;;;;;;;12.07;7.13;;;;;;;2.01;68.10;99444.16;5012016;28;20035;-58
2022/03/09 07:17:14;;;;;;;10.83;9.10;;;;;;;2.08;67.47;99438.50;5016991;28;20045;-59
2022/03/09 07:19:40;;;;;;;14.57;8.37;;;;;;;2.17;66.72;99439.56;5016706;28;20088;-59
2022/03/09 07:22:06;;;;;;;10.23;7.63;;;;;;;2.41;64.92;99436.84;5013291;28;20042;-59
2022/03/09 07:24:32;;;;;;;9.97;6.83;;;;;;;2.44;64.90;99433.53;5017873;28;20050;-60
2022/03/09 07:26:58;;;;;;;11.17;7.37;;;;;;;2.62;64.01;99439.94;5019157;28;20107;-58
2022/03/09 07:29:23;;;;;;;10.17;5.97;;;;;;;2.80;63.25;99436.97;5018789;28;20033;-56
2022/03/09 07:31:49;;;;;;;12.73;7.33;;;;;;;2.99;62.58;99440.84;5014713;28;20132;-60
2022/03/09 07:34:15;;;;;;;11.43;6.83;;;;;;;3.16;62.53;99439.56;5013119;28;20034;-59
2022/03/09 07:36:40;;;;;;;13.30;7.20;;;;;;;3.29;63.38;99446.63;5020398;28;20053;-60
2022/03/09 07:39:06;;;;;;;15.13;8.60;;;;;;;3.49;62.67;99434.38;5015411;28;20061;-58
2022/03/09 07:41:31;;;;;;;12.27;6.87;;;;;;;3.72;61.81;99447.56;5014552;28;20526;-57
2022/03/09 07:43:57;;;;;;;12.77;6.73;;;;;;;3.80;60.50;99449.44;5016481;28;20034;-60
2022/03/09 07:46:22;;;;;;;11.23;6.97;;;;;;;3.92;60.41;99456.44;5021570;28;20057;-59
2022/03/09 07:48:48;;;;;;;9.93;7.00;;;;;;;4.00;60.21;99459.97;5018182;28;20671;-59
2022/03/09 07:51:13;;;;;;;14.80;8.63;;;;;;;4.09;59.96;99461.03;5014696;28;20135;-59
2022/03/09 07:53:42;;;;;;;10.20;6.30;;;;;;;4.23;59.30;99458.78;5015316;28;20045;-59
2022/03/09 07:56:10;;;;;;;12.97;6.93;;;;;;;4.52;58.65;99455.09;5017002;28;20120;-58
2022/03/09 07:58:35;;;;;;;12.47;6.33;;;;;;;4.76;56.90;99441.97;5012985;28;20792;-58
2022/03/09 08:01:00;;;;;;;12.47;8.33;;;;;;;4.95;55.12;99443.13;5014938;28;20045;-58
2022/03/09 08:03:26;;;;;;;9.93;6.40;;;;;;;4.92;52.98;99441.38;5019632;28;20058;-59
2022/03/09 08:05:51;;;;;;;9.20;6.30;;;;;;;5.31;53.68;99443.69;5020675;28;20749;-58
2022/03/09 08:08:17;;;;;;;10.60;6.50;;;;;;;5.60;52.45;99440.75;5013298;28;20481;-59
2022/03/09 08:10:42;;;;;;;9.07;6.57;;;;;;;5.89;51.97;99447.09;5012772;28;20046;-59
2022/03/09 08:13:07;;;;;;;12.40;7.90;;;;;;;6.00;51.95;99432.81;5015975;28;20949;-59
2022/03/09 08:15:34;;;;;;;11.50;7.07;;;;;;;6.24;50.19;99437.31;5018477;28;20029;-61
2022/03/09 08:17:59;;;;;;;16.40;8.10;;;;;;;6.34;49.68;99444.22;5017860;28;20340;-60
2022/03/09 08:20:25;;;;;;;12.57;7.17;;;;;;;6.30;49.27;99443.34;5011335;28;20064;-60
2022/03/09 08:22:50;;;;;;;11.70;8.03;;;;;;;6.38;49.47;99445.97;5016368;28;20183;-58
2022/03/09 08:25:16;;;;;;;13.30;9.20;;;;;;;6.77;49.08;99437.88;5016429;28;20049;-59
2022/03/09 08:27:41;;;;;;;14.77;9.53;;;;;;;6.72;47.93;99436.97;5016539;28;20048;-58
2022/03/09 08:30:07;;;;;;;13.33;7.80;;;;;;;6.46;47.52;99446.91;5011832;28;20050;-58
2022/03/09 08:32:32;;;;;;;12.97;7.60;;;;;;;6.47;48.01;99448.59;5016277;28;20045;-58
2022/03/09 08:34:57;;;;;;;13.20;7.80;;;;;;;6.40;47.96;99449.41;5018017;28;20558;-56
2022/03/09 08:37:23;;;;;;;11.77;7.60;;;;;;;6.44;47.39;99453.69;5011329;28;20212;-57
2022/03/09 08:39:48;;;;;;;13.53;7.57;;;;;;;6.35;47.60;99448.47;5010822;28;20042;-56
2022/03/09 08:42:17;;;;;;;11.67;8.40;;;;;;;6.44;47.02;99446.03;5018556;28;20045;-58
2022/03/09 08:44:42;;;;;;;11.73;7.93;;;;;;;6.39;47.39;99443.44;5015478;28;20104;-57
2022/03/09 08:47:08;;;;;;;14.50;9.97;;;;;;;6.29;46.87;99451.81;5013258;28;20042;-57
2022/03/09 08:49:42;;;;;;;12.27;8.50;;;;;;;6.41;46.87;99448.53;5011661;28;20586;-57
2022/03/09 08:52:10;;;;;;;10.93;8.77;;;;;;;6.36;46.20;99456.16;5012073;28;20547;-58
2022/03/09 08:54:36;;;;;;;11.03;7.33;;;;;;;6.06;44.46;99450.69;5012500;28;20042;-58
2022/03/09 08:57:03;;;;;;;9.20;7.10;;;;;;;6.11;44.76;99445.66;5009922;28;20045;-61
2022/03/09 08:59:28;;;;;;;10.93;7.90;;;;;;;6.54;45.43;99449.50;5012859;28;20487;-56
2022/03/09 09:01:54;;;;;;;12.80;7.40;;;;;;;6.56;43.96;99435.13;5015738;28;20116;-55
2022/03/09 09:04:19;;;;;;;9.67;6.60;;;;;;;6.41;43.68;99445.97;5014374;28;20459;-57
2022/03/09 09:06:44;;;;;;;12.27;6.60;;;;;;;6.08;43.73;99430.34;5009852;28;20041;-57
2022/03/09 09:09:10;;;;;;;24.07;10.53;;;;;;;6.22;44.02;99442.41;5009681;28;20045;-57
2022/03/09 09:11:37;;;;;;;24.97;12.27;;;;;;;6.43;43.70;99429.91;5009189;28;20391;-57
2022/03/09 09:14:03;;;;;;;11.43;6.70;;;;;;;6.72;43.48;99436.97;5009667;28;20033;-56
2022/03/09 09:16:28;;;;;;;9.53;6.50;;;;;;;6.71;43.04;99433.56;5009737;28;20034;-55
2022/03/09 09:18:54;;;;;;;7.83;6.40;;;;;;;6.69;43.18;99426.75;5008694;28;20026;-57
2022/03/09 09:21:19;;;;;;;13.40;6.57;;;;;;;6.73;42.74;99425.94;5012928;28;20454;-54
2022/03/09 09:23:45;;;;;;;7.37;5.53;;;;;;;6.41;42.60;99435.78;5007894;28;20038;-56
2022/03/09 09:26:14;;;;;;;8.77;5.53;;;;;;;6.54;43.20;99427.44;5008291;28;20042;-56
2022/03/09 09:28:39;;;;;;;9.23;5.10;;;;;;;6.24;42.34;99419.47;5011430;28;20533;-54
2022/03/09 09:31:04;;;;;;;13.37;5.60;;;;;;;6.33;42.90;99417.03;5012638;28;20030;-53
2022/03/09 09:33:30;;;;;;;8.87;6.70;;;;;;;6.42;42.68;99415.44;5011158;28;20038;-55
2022/03/09 09:35:55;;;;;;;9.90;5.70;;;;;;;6.50;42.27;99414.66;5009115;28;20120;-54
2022/03/09 09:38:20;;;;;;;7.17;4.20;;;;;;;6.39;40.72;99415.44;5012273;28;20432;-57
2022/03/09 09:40:47;;;;;;;6.43;4.30;;;;;;;6.11;41.22;99413.41;5011398;28;20133;-55
2022/03/09 09:43:14;;;;;;;9.20;4.67;;;;;;;6.15;41.29;99417.72;5009690;28;20056;-55
2022/03/09 09:45:41;;;;;;;9.00;5.30;;;;;;;6.21;41.36;99417.78;5006580;28;20056;-54
2022/03/09 09:48:08;;;;;;;5.40;3.90;;;;;;;6.39;41.60;99405.25;5012203;28;20041;-57
2022/03/09 09:50:34;;;;;;;6.40;4.13;;;;;;;6.53;41.50;99401.97;5013202;28;20033;-55
2022/03/09 09:53:04;;;;;;;8.07;4.83;;;;;;;6.33;41.35;99404.31;5010198;28;20065;-55
2022/03/09 09:55:30;;;;;;;11.40;5.23;;;;;;;6.56;41.46;99404.53;5008813;28;20033;-55
2022/03/09 09:57:56;;;;;;;7.17;4.40;;;;;;;6.75;41.52;99402.16;5010329;28;20038;-55
2022/03/09 10:00:22;;;;;;;6.67;4.43;;;;;;;6.80;41.95;99399.66;5012277;28;20063;-56
2022/03/09 10:02:48;;;;;;;8.43;5.10;;;;;;;6.93;40.77;99385.31;5008517;28;20506;-55
2022/03/09 10:05:16;;;;;;;9.00;5.43;;;;;;;7.04;40.38;99379.47;5007389;28;20045;-56
2022/03/09 10:08:04;;;;;;;8.00;5.37;;;;;;;7.22;40.58;99384.69;5011935;28;20072;-57
2022/03/09 10:10:57;;;;;;;5.97;3.40;;;;;;;7.26;40.98;99378.75;5010707;28;20037;-57
2022/03/09 10:13:28;;;;;;;9.53;4.60;;;;;;;7.56;40.63;99375.53;5003641;28;20033;-57
2022/03/09 10:16:15;;;;;;;8.03;4.70;;;;;;;7.54;40.76;99379.78;5010952;28;20049;-58
2022/03/09 10:18:48;;;;;;;5.20;4.63;;;;;;;7.78;40.46;99376.47;5011213;28;20042;-56
2022/03/09 10:21:17;;;;;;;8.37;5.37;;;;;;;7.70;41.24;99375.59;5009818;28;20575;-58
2022/03/09 10:24:02;;;;;;;5.27;3.57;;;;;;;7.77;40.50;99374.75;5008483;28;20060;-57
2022/03/09 10:26:49;;;;;;;5.38;3.45;;;;;;;7.56;41.37;99379.75;5014205;28;20042;-57
2022/03/09 10:29:18;;;;;;;4.90;4.10;;;;;;;7.96;41.85;99366.34;5014539;28;20152;-57
2022/03/09 10:31:47;;;;;;;6.90;4.30;;;;;;;8.00;42.22;99367.19;5011088;28;20065;-58
2022/03/09 10:34:27;;;;;;;6.57;3.77;;;;;;;8.00;41.57;99362.09;5013156;28;20049;-58
2022/03/09 10:36:55;;;;;;;5.70;4.00;;;;;;;7.88;42.17;99367.16;5017585;28;20120;-56
2022/03/09 10:39:22;;;;;;;7.23;3.97;;;;;;;7.99;41.87;99370.59;5016011;28;20045;-56
2022/03/09 10:41:48;;;;;;;4.93;3.53;;;;;;;7.89;42.11;99368.88;5013780;28;20048;-56
2022/03/09 10:44:13;;;;;;;7.23;4.60;;;;;;;8.51;41.99;99361.38;5015275;28;20033;-57
2022/03/09 10:46:52;;;;;;;6.23;4.50;;;;;;;8.85;41.75;99359.69;5016597;28;20056;-57
2022/03/09 10:49:19;;;;;;;7.57;4.90;;;;;;;8.92;41.68;99363.91;5015608;28;20038;-57
2022/03/09 10:51:48;;;;;;;6.33;4.33;;;;;;;9.05;41.31;99368.19;5012643;28;20057;-57
2022/03/09 10:54:22;;;;;;;6.53;4.47;;;;;;;9.24;41.16;99357.06;5017263;28;20038;-55
2022/03/09 10:56:48;;;;;;;5.10;4.30;;;;;;;9.13;42.02;99363.91;5020065;28;20061;-56
2022/03/09 10:59:15;;;;;;;7.23;4.87;;;;;;;8.90;41.73;99365.66;5019248;28;20563;-56
2022/03/09 11:01:41;;;;;;;5.60;4.67;;;;;;;8.47;42.67;99362.22;5015476;28;20037;-56
2022/03/09 11:04:17;;;;;;;6.60;5.73;;;;;;;8.49;42.60;99358.81;5016761;28;20049;-56
2022/03/09 11:06:46;;;;;;;8.37;5.57;;;;;;;8.84;42.10;99360.53;5017250;28;20037;-58
2022/03/09 11:09:19;;;;;;;5.37;4.10;;;;;;;8.19;43.20;99363.81;5014960;28;20157;-57
2022/03/09 11:11:46;;;;;;;5.50;3.77;;;;;;;7.92;44.19;99361.22;5022494;28;20215;-57
2022/03/09 11:14:14;;;;;;;6.20;3.93;;;;;;;8.00;43.96;99362.09;5018106;28;20068;-56
2022/03/09 11:16:41;;;;;;;6.50;4.40;;;;;;;7.99;45.63;99368.88;5015699;28;20045;-57
2022/03/09 11:19:07;;;;;;;8.97;5.70;;;;;;;8.26;45.87;99356.19;5015226;28;20669;-57
2022/03/09 11:21:34;;;;;;;16.33;8.53;;;;;;;8.43;45.59;99355.41;5016819;28;20112;-57
2022/03/09 11:24:00;;;;;;;9.00;6.73;;;;;;;8.47;45.61;99359.66;5017753;28;20092;-58
2022/03/09 11:26:28;;;;;;;19.23;8.70;;;;;;;8.53;45.78;99354.56;5017850;28;20787;-58
2022/03/09 11:29:02;;;;;;;4.73;3.77;;;;;;;8.44;44.87;99350.31;5016076;28;20037;-58